Time;durP1;ratioP1;P1;durP2;ratioP2;P2;SDS_P1;SDS_P2;PMS_P1;PMS_P2;Temp;Humidity;BMP_temperature;BMP_pressure;BME280_temperature;BME280_humidity;BME280_pressure;Samples;Min_cycle;Max_cycle;Signal;HPM_P1;HPM_P2
2023/07/04 00:01:54;;;;;;;14.67;4.10;;;19.90;18.80;;;;;;5066580;28;20463;-68
2023/07/04 00:04:22;;;;;;;8.03;3.60;;;19.70;18.70;;;;;;5068742;28;20547;-69
2023/07/04 00:06:50;;;;;;;10.10;4.53;;;19.70;19.10;;;;;;5075181;28;20453;-69
2023/07/04 00:09:18;;;;;;;16.93;5.30;;;19.60;19.60;;;;;;5073229;28;20461;-69
2023/07/04 00:11:45;;;;;;;10.57;4.50;;;19.60;20.40;;;;;;5071275;28;20461;-69
2023/07/04 00:14:12;;;;;;;10.20;3.90;;;19.50;21.00;;;;;;5063977;28;20478;-69
2023/07/04 00:16:39;;;;;;;10.10;4.37;;;19.50;21.40;;;;;;5066431;28;20457;-69
2023/07/04 00:19:06;;;;;;;8.53;4.40;;;19.50;21.50;;;;;;5074072;28;20921;-69
2023/07/04 00:21:33;;;;;;;7.87;3.83;;;19.40;21.40;;;;;;5060869;28;21464;-69
2023/07/04 00:23:59;;;;;;;8.43;3.80;;;19.40;21.80;;;;;;5071095;28;20491;-69
2023/07/04 00:26:29;;;;;;;8.97;4.37;;;19.50;22.60;;;;;;5066271;28;20476;-69
2023/07/04 00:28:57;;;;;;;10.20;4.53;;;19.50;23.50;;;;;;5071948;28;20461;-69
2023/07/04 00:31:25;;;;;;;9.93;5.50;;;19.50;24.10;;;;;;5067990;28;20480;-69
2023/07/04 00:33:52;;;;;;;11.47;4.47;;;19.40;25.40;;;;;;5069739;28;21015;-68
2023/07/04 00:36:20;;;;;;;9.77;4.87;;;19.40;26.50;;;;;;5065094;28;20461;-68
2023/07/04 00:38:51;;;;;;;7.07;3.20;;;19.30;27.00;;;;;;5072060;28;20452;-69
2023/07/04 00:41:21;;;;;;;9.50;4.43;;;19.30;27.20;;;;;;5064161;28;20461;-68
2023/07/04 00:43:58;;;;;;;7.87;4.30;;;19.20;27.60;;;;;;5071722;28;20485;-69
2023/07/04 00:46:37;;;;;;;8.47;4.00;;;19.10;27.80;;;;;;5067136;28;20823;-69
2023/07/04 00:49:07;;;;;;;7.40;4.13;;;19.00;28.50;;;;;;5062441;28;20504;-69
2023/07/04 00:51:35;;;;;;;9.53;4.00;;;19.00;28.90;;;;;;5067120;28;20455;-69
2023/07/04 00:54:04;;;;;;;8.00;4.03;;;19.00;29.00;;;;;;5067949;28;20503;-68
2023/07/04 00:56:31;;;;;;;7.83;4.10;;;18.90;29.30;;;;;;5067445;28;21041;-68
2023/07/04 00:59:00;;;;;;;6.90;3.20;;;18.90;29.50;;;;;;5069831;28;20468;-68
2023/07/04 01:01:28;;;;;;;9.50;4.67;;;18.80;30.30;;;;;;5073338;28;20473;-69
2023/07/04 01:03:58;;;;;;;8.40;4.77;;;18.70;30.90;;;;;;5066714;28;20476;-69
2023/07/04 01:06:30;;;;;;;8.60;3.97;;;18.60;31.60;;;;;;5061279;28;20460;-69
2023/07/04 01:09:01;;;;;;;11.10;4.27;;;18.50;32.00;;;;;;5066524;28;20472;-68
2023/07/04 01:11:33;;;;;;;9.37;3.80;;;18.40;32.00;;;;;;5062515;28;21023;-68
2023/07/04 01:14:05;;;;;;;8.90;3.83;;;18.40;32.30;;;;;;5077033;22;20474;-66
2023/07/04 01:16:32;;;;;;;12.27;5.13;;;18.40;32.30;;;;;;5065209;28;20548;-66
2023/07/04 01:18:59;;;;;;;12.87;4.90;;;18.40;32.50;;;;;;5067138;28;20501;-66
2023/07/04 01:21:28;;;;;;;10.83;4.80;;;18.40;32.70;;;;;;5064843;28;20452;-66
2023/07/04 01:24:07;;;;;;;12.30;5.60;;;18.30;33.30;;;;;;5066618;28;20500;-66
2023/07/04 01:26:37;;;;;;;7.80;4.23;;;18.30;33.30;;;;;;5066421;28;20836;-66
2023/07/04 01:29:07;;;;;;;13.93;4.37;;;18.30;33.30;;;;;;5068564;28;20457;-66
2023/07/04 01:31:35;;;;;;;9.20;4.27;;;18.30;33.50;;;;;;5068346;28;21051;-66
2023/07/04 01:34:03;;;;;;;7.30;3.50;;;18.30;33.50;;;;;;5067631;28;20500;-66
2023/07/04 01:36:33;;;;;;;7.20;3.70;;;18.30;33.60;;;;;;5062508;28;20481;-66
2023/07/04 01:39:00;;;;;;;9.20;3.40;;;18.20;33.60;;;;;;5064464;28;20464;-66
2023/07/04 01:41:30;;;;;;;7.80;3.90;;;18.20;33.50;;;;;;5061386;28;20530;-66
2023/07/04 01:44:03;;;;;;;10.03;3.60;;;18.10;33.60;;;;;;5065165;28;20472;-67
2023/07/04 01:46:30;;;;;;;10.13;4.10;;;18.00;33.50;;;;;;5067656;28;20457;-67
2023/07/04 01:48:57;;;;;;;8.80;4.33;;;17.90;34.00;;;;;;5065556;28;20460;-67
2023/07/04 01:51:26;;;;;;;6.93;3.83;;;17.90;34.30;;;;;;5067841;28;20984;-66
2023/07/04 01:53:53;;;;;;;8.80;3.63;;;17.80;34.10;;;;;;5067682;28;20477;-65
2023/07/04 01:56:20;;;;;;;13.97;5.40;;;17.80;34.30;;;;;;5066616;28;20457;-65
2023/07/04 01:58:46;;;;;;;11.33;4.70;;;17.80;34.70;;;;;;5065491;28;20466;-65
2023/07/04 02:01:14;;;;;;;22.20;5.07;;;17.70;34.80;;;;;;5063846;28;21018;-66
2023/07/04 02:03:42;;;;;;;13.10;4.87;;;17.70;35.00;;;;;;5067587;28;20485;-66
2023/07/04 02:06:08;;;;;;;14.30;4.50;;;17.70;35.30;;;;;;5068185;28;20488;-66
2023/07/04 02:08:35;;;;;;;8.93;4.30;;;17.80;35.30;;;;;;5067397;28;20461;-66
2023/07/04 02:11:02;;;;;;;8.83;4.00;;;17.80;35.30;;;;;;5067331;28;20457;-66
2023/07/04 02:13:29;;;;;;;8.00;4.00;;;17.80;35.50;;;;;;5067508;28;20883;-66
2023/07/04 02:15:56;;;;;;;10.10;3.90;;;17.80;35.80;;;;;;5067782;28;20953;-66
2023/07/04 02:18:25;;;;;;;7.80;3.40;;;17.80;35.70;;;;;;5065116;28;20465;-66
2023/07/04 02:20:52;;;;;;;8.03;3.33;;;17.80;35.40;;;;;;5065878;28;20869;-66
2023/07/04 02:23:19;;;;;;;6.70;3.37;;;17.80;35.50;;;;;;5065523;28;20485;-66
2023/07/04 02:25:46;;;;;;;9.57;4.20;;;17.80;35.30;;;;;;5068531;28;20471;-66
2023/07/04 02:28:12;;;;;;;9.10;4.17;;;17.80;35.50;;;;;;5065317;28;20487;-66
2023/07/04 02:30:39;;;;;;;11.00;4.43;;;17.70;35.50;;;;;;5067049;28;20468;-66
2023/07/04 02:33:06;;;;;;;9.30;4.17;;;17.80;35.70;;;;;;5067263;28;20480;-66
2023/07/04 02:35:34;;;;;;;7.40;3.60;;;17.80;35.70;;;;;;5066568;28;20461;-66
2023/07/04 02:38:01;;;;;;;9.40;4.10;;;17.80;35.70;;;;;;5067316;28;20457;-66
2023/07/04 02:40:27;;;;;;;7.87;3.73;;;17.80;35.80;;;;;;5066631;28;20463;-66
2023/07/04 02:42:54;;;;;;;7.93;3.40;;;17.80;35.70;;;;;;5061563;28;20477;-66
2023/07/04 02:45:21;;;;;;;7.30;3.23;;;17.80;35.50;;;;;;5067408;28;20472;-66
2023/07/04 02:47:48;;;;;;;9.03;3.37;;;17.80;35.70;;;;;;5066273;28;20472;-66
2023/07/04 02:50:15;;;;;;;5.90;2.70;;;17.80;35.80;;;;;;5067546;28;20886;-66
2023/07/04 02:52:43;;;;;;;8.00;3.97;;;17.80;35.60;;;;;;5065107;28;20930;-66
2023/07/04 02:55:10;;;;;;;8.37;3.50;;;17.80;35.70;;;;;;5066014;28;20453;-66
2023/07/04 02:57:36;;;;;;;8.50;3.23;;;17.80;35.50;;;;;;5066280;28;20980;-66
2023/07/04 03:00:04;;;;;;;7.80;3.30;;;17.90;35.50;;;;;;5067657;28;20453;-66
2023/07/04 03:02:30;;;;;;;7.70;3.70;;;17.80;35.50;;;;;;5063885;28;20837;-66
2023/07/04 03:04:57;;;;;;;8.80;3.90;;;17.80;35.60;;;;;;5064635;28;20582;-66
2023/07/04 03:07:24;;;;;;;7.53;3.47;;;17.80;35.70;;;;;;5063090;28;20469;-66
2023/07/04 03:09:52;;;;;;;9.73;3.70;;;17.70;35.90;;;;;;5064257;28;20461;-66
2023/07/04 03:12:19;;;;;;;7.17;3.00;;;17.70;36.00;;;;;;5061430;28;20943;-66
2023/07/04 03:14:45;;;;;;;6.40;3.57;;;17.60;36.10;;;;;;5061062;28;20512;-65
2023/07/04 03:17:12;;;;;;;8.27;3.37;;;17.70;35.90;;;;;;5061472;28;20461;-65
2023/07/04 03:19:39;;;;;;;7.67;3.23;;;17.70;35.80;;;;;;5061548;28;20469;-65
2023/07/04 03:22:06;;;;;;;9.90;3.60;;;17.70;35.80;;;;;;5057857;28;20500;-65
2023/07/04 03:24:32;;;;;;;7.30;3.13;;;17.70;35.90;;;;;;5065772;28;20481;-65
2023/07/04 03:27:00;;;;;;;7.27;3.60;;;17.70;36.00;;;;;;5066225;28;20770;-65
2023/07/04 03:29:27;;;;;;;7.20;3.47;;;17.70;35.90;;;;;;5066019;28;20957;-66
2023/07/04 03:31:54;;;;;;;8.17;2.60;;;17.70;36.00;;;;;;5067211;28;20476;-66
2023/07/04 03:34:20;;;;;;;7.17;3.30;;;17.80;35.70;;;;;;5068989;28;20485;-70
2023/07/04 03:36:47;;;;;;;9.90;3.90;;;17.80;35.70;;;;;;5066116;28;20499;-65
2023/07/04 03:39:14;;;;;;;9.13;3.50;;;17.80;35.70;;;;;;5068601;28;20465;-65
2023/07/04 03:41:40;;;;;;;7.90;3.40;;;17.90;35.90;;;;;;5070459;28;21066;-66
2023/07/04 03:44:09;;;;;;;14.27;4.77;;;17.90;36.00;;;;;;5060628;28;20503;-64
2023/07/04 03:46:36;;;;;;;5.63;2.93;;;17.80;35.80;;;;;;5074829;28;20456;-64
2023/07/04 03:49:03;;;;;;;9.37;3.93;;;17.80;35.90;;;;;;5070586;28;20460;-64
2023/07/04 03:51:30;;;;;;;9.20;2.93;;;17.80;35.70;;;;;;5067624;28;20468;-65
2023/07/04 03:53:56;;;;;;;6.37;3.07;;;17.90;35.80;;;;;;5070378;28;21003;-65
2023/07/04 03:56:23;;;;;;;8.33;3.97;;;17.90;36.30;;;;;;5070308;28;20449;-64
2023/07/04 03:58:50;;;;;;;8.10;3.30;;;17.90;35.90;;;;;;5068470;28;20457;-64
2023/07/04 04:01:18;;;;;;;7.30;3.33;;;17.90;35.60;;;;;;5070016;28;20476;-64
2023/07/04 04:03:44;;;;;;;7.10;3.73;;;18.00;36.10;;;;;;5069186;28;20485;-64
2023/07/04 04:06:11;;;;;;;6.80;3.57;;;18.00;36.40;;;;;;5070273;28;20460;-64
2023/07/04 04:08:38;;;;;;;6.80;3.37;;;18.00;36.50;;;;;;5069057;28;20465;-64
2023/07/04 04:11:05;;;;;;;9.33;3.80;;;18.00;36.60;;;;;;5068943;28;20461;-64
2023/07/04 04:13:32;;;;;;;10.83;4.10;;;18.00;36.50;;;;;;5069890;28;20473;-64
2023/07/04 04:15:59;;;;;;;9.87;4.07;;;18.00;36.50;;;;;;5066364;28;20468;-64
2023/07/04 04:18:27;;;;;;;10.70;3.90;;;18.00;36.30;;;;;;5068638;28;20949;-64
2023/07/04 04:20:54;;;;;;;7.00;4.17;;;18.00;36.30;;;;;;5065685;28;20453;-64
2023/07/04 04:23:21;;;;;;;10.70;4.27;;;18.10;36.30;;;;;;5066581;28;20477;-64
2023/07/04 04:25:48;;;;;;;6.57;3.53;;;18.10;36.80;;;;;;5068813;28;20465;-64
2023/07/04 04:28:15;;;;;;;13.33;4.30;;;18.10;37.40;;;;;;5071155;28;20468;-64
2023/07/04 04:30:42;;;;;;;7.60;3.77;;;18.10;36.80;;;;;;5068957;28;20469;-64
2023/07/04 04:33:09;;;;;;;7.43;3.23;;;18.10;37.10;;;;;;5085933;28;20468;-64
2023/07/04 04:35:39;;;;;;;11.20;3.90;;;18.10;37.10;;;;;;5071131;28;20472;-65
2023/07/04 04:38:07;;;;;;;7.00;3.10;;;18.10;37.00;;;;;;5069168;28;20453;-65
2023/07/04 04:40:33;;;;;;;7.53;3.53;;;18.10;36.40;;;;;;5070863;28;20491;-64
2023/07/04 04:43:00;;;;;;;8.10;3.43;;;18.20;36.20;;;;;;5070005;28;20489;-64
2023/07/04 04:45:28;;;;;;;7.17;3.17;;;18.20;35.90;;;;;;5069382;28;20464;-64
2023/07/04 04:47:55;;;;;;;8.00;3.33;;;18.20;35.60;;;;;;5070198;28;20460;-64
2023/07/04 04:50:22;;;;;;;6.40;2.80;;;18.30;35.50;;;;;;5069694;28;20461;-64
2023/07/04 04:52:50;;;;;;;7.93;3.47;;;18.30;35.70;;;;;;5069558;28;21036;-64
2023/07/04 04:55:18;;;;;;;7.93;2.87;;;18.30;35.10;;;;;;5069784;28;20484;-64
2023/07/04 04:57:44;;;;;;;6.53;2.87;;;18.30;35.00;;;;;;5070250;28;20461;-65
2023/07/04 05:00:13;;;;;;;6.60;2.73;;;18.30;34.90;;;;;;5068500;28;20464;-65
2023/07/04 05:02:39;;;;;;;7.40;2.90;;;18.30;34.80;;;;;;5068822;28;20500;-65
2023/07/04 05:05:07;;;;;;;9.30;3.13;;;18.30;34.60;;;;;;5068923;28;20461;-65
2023/07/04 05:07:34;;;;;;;7.33;2.30;;;18.40;34.70;;;;;;5069680;28;20461;-64
2023/07/04 05:10:02;;;;;;;6.37;2.40;;;18.40;34.70;;;;;;5068763;28;20985;-64
2023/07/04 05:12:29;;;;;;;7.47;3.17;;;18.30;34.80;;;;;;5070170;28;20897;-64
2023/07/04 05:14:56;;;;;;;9.00;3.00;;;18.40;34.80;;;;;;5068173;28;20922;-64
2023/07/04 05:17:24;;;;;;;6.63;2.83;;;18.40;34.90;;;;;;5069898;28;20457;-65
2023/07/04 05:19:51;;;;;;;7.13;3.20;;;18.50;34.80;;;;;;5069307;28;20984;-65
2023/07/04 05:22:19;;;;;;;8.30;3.20;;;18.50;35.10;;;;;;5066895;28;20472;-65
2023/07/04 05:24:46;;;;;;;8.60;3.20;;;18.60;34.50;;;;;;5066520;28;21147;-64
2023/07/04 05:27:15;;;;;;;6.30;2.80;;;18.60;34.60;;;;;;5069818;28;20465;-64
2023/07/04 05:29:42;;;;;;;6.83;3.07;;;18.60;34.60;;;;;;5065286;28;20511;-64
2023/07/04 05:32:09;;;;;;;8.07;2.90;;;18.70;34.50;;;;;;5066893;28;20468;-65
2023/07/04 05:34:36;;;;;;;10.87;3.07;;;18.70;35.00;;;;;;5066982;28;20988;-64
2023/07/04 05:37:03;;;;;;;8.23;3.13;;;18.70;34.40;;;;;;5068887;28;20460;-64
2023/07/04 05:39:30;;;;;;;6.63;2.60;;;18.80;33.80;;;;;;5068447;28;20866;-64
2023/07/04 05:41:56;;;;;;;7.50;3.17;;;18.80;34.00;;;;;;5068782;28;20957;-64
2023/07/04 05:44:24;;;;;;;7.07;2.60;;;18.80;34.40;;;;;;5068769;28;20804;-64
2023/07/04 05:46:53;;;;;;;7.17;3.53;;;18.80;34.10;;;;;;5068600;28;20453;-64
2023/07/04 05:49:20;;;;;;;7.93;2.90;;;18.80;34.10;;;;;;5064878;28;20504;-65
2023/07/04 05:51:47;;;;;;;11.43;3.20;;;18.80;34.10;;;;;;5068778;28;20461;-64
2023/07/04 05:54:13;;;;;;;11.83;2.97;;;18.90;33.90;;;;;;5064782;28;20488;-64
2023/07/04 05:56:40;;;;;;;9.10;3.20;;;19.00;33.90;;;;;;5068310;28;20464;-65
2023/07/04 05:59:08;;;;;;;7.20;2.77;;;19.20;33.80;;;;;;5068184;28;20468;-64
2023/07/04 06:01:38;;;;;;;10.93;3.27;;;19.40;34.00;;;;;;5067173;28;20479;-64
2023/07/04 06:04:06;;;;;;;12.57;3.10;;;19.50;33.90;;;;;;5066833;28;20977;-64
2023/07/04 06:06:35;;;;;;;8.77;3.43;;;19.60;33.20;;;;;;5067737;28;20457;-65
2023/07/04 06:09:04;;;;;;;7.10;3.27;;;19.70;32.40;;;;;;5066157;28;20463;-65
2023/07/04 06:11:33;;;;;;;7.83;2.80;;;19.80;31.80;;;;;;5062648;28;20463;-65
2023/07/04 06:14:02;;;;;;;7.03;3.03;;;19.80;31.60;;;;;;5067411;28;20477;-64
2023/07/04 06:16:29;;;;;;;7.57;3.37;;;19.90;31.10;;;;;;5067700;28;20544;-65
2023/07/04 06:18:57;;;;;;;6.80;2.80;;;19.80;31.00;;;;;;5065519;28;20469;-65
2023/07/04 06:21:25;;;;;;;8.00;3.87;;;19.80;31.30;;;;;;5067628;28;20499;-65
2023/07/04 06:23:55;;;;;;;7.77;3.80;;;19.80;31.30;;;;;;5067154;28;20520;-65
2023/07/04 06:26:24;;;;;;;9.20;3.50;;;19.90;31.40;;;;;;5064632;28;20460;-65
2023/07/04 06:28:51;;;;;;;8.33;3.37;;;20.00;31.20;;;;;;5066376;28;20868;-66
2023/07/04 06:31:18;;;;;;;9.13;3.10;;;20.30;30.70;;;;;;5066487;28;20965;-65
2023/07/04 06:33:45;;;;;;;7.50;3.03;;;21.40;29.20;;;;;;5066949;28;20880;-65
2023/07/04 06:36:15;;;;;;;7.30;3.10;;;22.50;27.10;;;;;;5068547;28;20461;-65
2023/07/04 06:38:42;;;;;;;7.10;3.50;;;24.10;20.90;;;;;;5067643;28;20465;-65
2023/07/04 06:41:11;;;;;;;6.13;2.60;;;25.00;17.70;;;;;;5067862;28;20468;-64
2023/07/04 06:43:39;;;;;;;10.57;3.37;;;25.40;15.70;;;;;;5063482;28;20993;-64
2023/07/04 06:46:06;;;;;;;6.23;2.60;;;25.50;15.40;;;;;;5068456;28;20457;-64
2023/07/04 06:48:33;;;;;;;6.83;2.73;;;26.00;14.10;;;;;;5067577;28;20501;-64
2023/07/04 06:51:01;;;;;;;6.53;2.90;;;26.20;13.60;;;;;;5067119;28;20456;-64
2023/07/04 06:53:30;;;;;;;6.43;3.20;;;26.20;13.20;;;;;;5066931;28;20511;-64
2023/07/04 06:56:05;;;;;;;6.73;3.13;;;26.10;12.90;;;;;;5065878;28;20468;-64
2023/07/04 06:58:32;;;;;;;7.53;2.93;;;26.10;12.80;;;;;;5067161;28;20487;-64
2023/07/04 07:00:59;;;;;;;5.93;3.23;;;26.20;12.70;;;;;;5070632;28;21056;-64
2023/07/04 07:03:25;;;;;;;6.97;2.90;;;26.60;12.10;;;;;;5069743;28;20855;-64
2023/07/04 07:05:52;;;;;;;6.73;3.30;;;26.90;10.50;;;;;;5071205;28;20464;-64
2023/07/04 07:08:19;;;;;;;6.90;3.20;;;27.90;9.20;;;;;;5069874;28;20941;-64
2023/07/04 07:10:55;;;;;;;6.57;3.07;;;28.80;7.60;;;;;;5071255;28;20461;-64
2023/07/04 07:13:22;;;;;;;9.40;3.33;;;29.80;5.90;;;;;;5069120;28;20507;-64
2023/07/04 07:15:48;;;;;;;6.50;3.00;;;32.40;2.40;;;;;;5070986;28;21055;-64
2023/07/04 07:18:15;;;;;;;6.30;2.57;;;34.20;1.00;;;;;;5070385;28;20456;-65
2023/07/04 07:20:42;;;;;;;5.03;2.50;;;35.10;1.00;;;;;;5070990;28;20457;-65
2023/07/04 07:23:10;;;;;;;8.30;2.90;;;36.10;1.00;;;;;;5071703;28;20500;-64
2023/07/04 07:25:36;;;;;;;6.33;2.67;;;35.90;1.00;;;;;;5068238;28;20972;-64
2023/07/04 07:28:05;;;;;;;11.43;3.03;;;36.80;1.00;;;;;;5071597;28;20457;-65
2023/07/04 07:30:31;;;;;;;6.50;2.70;;;39.50;1.00;;;;;;5070717;28;20465;-65
2023/07/04 07:32:58;;;;;;;8.83;2.73;;;41.90;1.00;;;;;;5071464;28;20796;-65
2023/07/04 07:35:25;;;;;;;6.33;2.53;;;43.70;1.00;;;;;;5070905;28;20449;-65
2023/07/04 07:37:51;;;;;;;6.80;2.60;;;45.10;1.00;;;;;;5071121;28;20453;-65
2023/07/04 07:40:18;;;;;;;5.53;2.43;;;45.60;1.00;;;;;;5066513;28;20457;-65
2023/07/04 07:42:45;;;;;;;5.10;2.20;;;46.10;1.00;;;;;;5069814;28;20465;-65
2023/07/04 07:45:13;;;;;;;4.57;2.60;;;47.40;1.00;;;;;;5070557;28;20473;-65
2023/07/04 07:47:40;;;;;;;4.90;2.33;;;47.90;1.00;;;;;;5066744;28;20488;-66
2023/07/04 07:50:07;;;;;;;6.00;2.73;;;47.50;1.00;;;;;;5069534;28;20465;-65
2023/07/04 07:52:34;;;;;;;7.93;3.10;;;47.10;1.00;;;;;;5070195;28;20913;-65
2023/07/04 07:55:01;;;;;;;4.80;2.43;;;47.60;1.00;;;;;;5069592;28;20518;-66
2023/07/04 07:57:28;;;;;;;7.93;2.57;;;48.00;1.00;;;;;;5070370;28;20456;-66
2023/07/04 07:59:54;;;;;;;5.27;2.60;;;48.50;1.00;;;;;;5070365;28;20831;-65
2023/07/04 08:02:22;;;;;;;6.67;2.53;;;49.00;1.00;;;;;;5065459;28;20467;-66
2023/07/04 08:04:49;;;;;;;8.37;2.90;;;49.70;1.00;;;;;;5070804;28;20844;-65
2023/07/04 08:07:16;;;;;;;6.10;3.00;;;50.60;1.00;;;;;;5070821;28;20956;-66
2023/07/04 08:09:42;;;;;;;7.57;3.33;;;51.10;1.00;;;;;;5067825;28;20457;-65
2023/07/04 08:12:09;;;;;;;6.73;2.80;;;51.60;1.00;;;;;;5069670;28;20930;-65
2023/07/04 08:14:36;;;;;;;10.00;3.63;;;52.20;1.00;;;;;;5069310;28;20484;-66
2023/07/04 08:17:03;;;;;;;6.70;2.73;;;53.00;1.00;;;;;;5067335;28;20492;-65
2023/07/04 08:19:31;;;;;;;5.70;2.87;;;52.20;1.00;;;;;;5069261;28;20463;-65
2023/07/04 08:21:58;;;;;;;8.23;3.00;;;49.90;1.00;;;;;;5027469;22;1458559;-68
2023/07/04 08:24:25;;;;;;;6.13;2.50;;;48.90;1.00;;;;;;5045950;28;20314;-68
2023/07/04 08:26:56;;;;;;;6.43;3.17;;;49.60;1.00;;;;;;5046558;28;20473;-68
2023/07/04 08:29:23;;;;;;;9.10;2.93;;;50.40;1.00;;;;;;5048144;28;20501;-69
2023/07/04 08:31:49;;;;;;;5.17;2.60;;;51.40;1.00;;;;;;5050136;28;20477;-68
2023/07/04 08:34:16;;;;;;;7.27;3.20;;;51.90;1.00;;;;;;5049610;28;20910;-69
2023/07/04 08:36:44;;;;;;;6.03;2.70;;;51.10;1.00;;;;;;5049918;28;20458;-68
2023/07/04 08:39:11;;;;;;;9.13;3.27;;;48.90;1.00;;;;;;5050677;28;20458;-68
2023/07/04 08:41:45;;;;;;;6.57;3.47;;;49.40;1.00;;;;;;5049364;28;20465;-68
2023/07/04 08:44:17;;;;;;;7.97;3.40;;;50.80;1.00;;;;;;5048829;28;20486;-69
2023/07/04 08:46:46;;;;;;;7.20;2.90;;;51.90;1.00;;;;;;5049242;28;20466;-68
2023/07/04 08:49:27;;;;;;;5.90;2.70;;;53.10;1.00;;;;;;5049634;28;20472;-68
2023/07/04 08:52:02;;;;;;;7.13;3.10;;;53.70;1.00;;;;;;5049537;28;20462;-68
2023/07/04 08:54:29;;;;;;;5.90;2.63;;;54.00;1.00;;;;;;5050144;28;21055;-68
2023/07/04 08:56:58;;;;;;;7.20;3.47;;;54.60;1.00;;;;;;5047600;28;20457;-68
2023/07/04 08:59:37;;;;;;;7.93;3.50;;;55.00;1.00;;;;;;5050339;28;20469;-68
2023/07/04 09:02:23;;;;;;;9.27;4.90;;;55.30;1.00;;;;;;5044772;28;20514;-68
2023/07/04 09:04:57;;;;;;;7.30;4.60;;;55.40;1.00;;;;;;5015267;28;20572;-68
2023/07/04 09:07:38;;;;;;;8.67;4.63;;;54.70;1.00;;;;;;5050054;28;20469;-68
2023/07/04 09:10:30;;;;;;;8.30;4.87;;;52.90;1.00;;;;;;5048106;28;20472;-68
2023/07/04 09:12:56;;;;;;;9.17;3.80;;;51.30;1.00;;;;;;5047255;28;20462;-68
2023/07/04 09:15:30;;;;;;;7.63;4.17;;;50.30;1.00;;;;;;5049725;28;20458;-68
2023/07/04 09:18:10;;;;;;;6.70;4.07;;;48.80;1.00;;;;;;5049149;28;20812;-68
2023/07/04 09:20:47;;;;;;;7.30;3.83;;;47.30;1.00;;;;;;5049504;28;20458;-67
2023/07/04 09:23:21;;;;;;;7.50;4.70;;;46.30;1.00;;;;;;5045330;28;20504;-68
2023/07/04 09:25:48;;;;;;;9.13;5.10;;;44.90;1.00;;;;;;5049422;28;20486;-68
2023/07/04 09:28:14;;;;;;;8.10;4.87;;;43.80;1.00;;;;;;5050047;28;20465;-68
2023/07/04 09:30:41;;;;;;;8.30;4.60;;;42.90;1.00;;;;;;5049439;28;20481;-68
2023/07/04 09:33:09;;;;;;;8.80;4.97;;;41.90;1.00;;;;;;5046378;28;20494;-68
2023/07/04 09:35:36;;;;;;;7.20;4.63;;;40.60;1.00;;;;;;5047709;28;20465;-68
2023/07/04 09:38:04;;;;;;;8.30;4.63;;;39.30;1.00;;;;;;5046397;28;20494;-68
2023/07/04 09:40:45;;;;;;;6.70;4.00;;;38.00;1.00;;;;;;5049711;28;20465;-68
2023/07/04 09:43:24;;;;;;;8.87;5.77;;;36.90;1.00;;;;;;5048964;28;20874;-68
2023/07/04 09:45:51;;;;;;;10.43;5.40;;;35.90;1.00;;;;;;5049380;28;20489;-68
2023/07/04 09:48:24;;;;;;;8.87;4.60;;;34.80;1.00;;;;;;5049408;28;20465;-68
2023/07/04 09:50:51;;;;;;;8.23;4.40;;;34.00;1.00;;;;;;5051096;28;20961;-67
2023/07/04 09:53:19;;;;;;;9.13;4.20;;;33.20;1.00;;;;;;5070777;28;20513;-68
2023/07/04 09:56:01;;;;;;;10.93;4.33;;;32.60;1.00;;;;;;5072922;28;20464;-68
2023/07/04 09:58:29;;;;;;;7.87;4.13;;;32.40;1.00;;;;;;5048355;28;20516;-68
2023/07/04 10:01:08;;;;;;;7.83;4.00;;;32.50;1.00;;;;;;5045580;28;20531;-68
2023/07/04 10:03:36;;;;;;;7.90;4.20;;;32.60;1.00;;;;;;5048029;28;20524;-67
2023/07/04 10:06:04;;;;;;;8.03;4.30;;;32.40;1.00;;;;;;5048069;28;20489;-69
2023/07/04 10:08:31;;;;;;;7.70;4.30;;;32.20;1.00;;;;;;5049487;28;20494;-67
2023/07/04 10:10:59;;;;;;;7.77;4.37;;;32.00;1.00;;;;;;5047732;28;20470;-68
2023/07/04 10:13:33;;;;;;;8.60;4.50;;;31.70;1.00;;;;;;5047052;28;20486;-68
2023/07/04 10:16:00;;;;;;;9.83;4.40;;;31.60;1.00;;;;;;5048812;28;20454;-68
2023/07/04 10:18:29;;;;;;;8.30;3.80;;;31.40;1.00;;;;;;5048763;28;20461;-68
2023/07/04 10:20:57;;;;;;;7.50;4.17;;;31.30;1.00;;;;;;5047814;28;20477;-68
2023/07/04 10:23:26;;;;;;;6.40;4.00;;;31.20;1.00;;;;;;5046605;28;20486;-68
2023/07/04 10:25:55;;;;;;;7.60;4.37;;;31.20;1.00;;;;;;5046646;28;20506;-67
2023/07/04 10:28:26;;;;;;;7.60;4.20;;;31.10;1.00;;;;;;5043753;28;20934;-67
2023/07/04 10:30:56;;;;;;;7.60;3.70;;;31.20;1.00;;;;;;5046891;28;20474;-67
2023/07/04 10:33:28;;;;;;;8.83;3.17;;;31.20;1.00;;;;;;5044348;28;20494;-67
2023/07/04 10:35:56;;;;;;;7.53;4.10;;;31.10;1.00;;;;;;5046043;28;20456;-67
2023/07/04 10:38:34;;;;;;;6.47;3.20;;;30.90;1.00;;;;;;5048862;28;20466;-67
2023/07/04 10:41:03;;;;;;;7.97;4.30;;;30.70;1.00;;;;;;5047979;28;20466;-68
2023/07/04 10:43:35;;;;;;;6.60;3.73;;;30.50;1.00;;;;;;5047302;28;20477;-67
2023/07/04 10:46:07;;;;;;;6.50;3.17;;;30.50;1.00;;;;;;5046932;28;20553;-68
2023/07/04 10:48:35;;;;;;;6.77;3.43;;;30.60;1.00;;;;;;5048481;28;20947;-67
2023/07/04 10:51:07;;;;;;;10.90;4.20;;;30.40;1.00;;;;;;5045292;28;20466;-67
2023/07/04 10:53:34;;;;;;;9.23;3.77;;;30.20;1.00;;;;;;5047632;28;21188;-68
2023/07/04 10:56:05;;;;;;;8.47;3.87;;;30.20;1.00;;;;;;5048388;28;20446;-67
2023/07/04 10:58:37;;;;;;;8.77;3.70;;;30.20;1.00;;;;;;5048305;28;20462;-68
2023/07/04 11:01:08;;;;;;;8.97;4.27;;;30.30;1.00;;;;;;5047925;28;21048;-67
2023/07/04 11:03:43;;;;;;;8.53;3.77;;;30.50;1.00;;;;;;5047550;28;20481;-68
2023/07/04 11:06:15;;;;;;;8.23;3.53;;;30.80;1.00;;;;;;5044552;28;21080;-67
2023/07/04 11:08:42;;;;;;;8.03;3.87;;;30.80;1.00;;;;;;5045532;28;20477;-68
2023/07/04 11:11:12;;;;;;;9.10;4.17;;;30.90;1.00;;;;;;5047159;28;20454;-67
2023/07/04 11:13:49;;;;;;;6.43;3.10;;;31.00;1.00;;;;;;5048023;28;20482;-67
2023/07/04 11:16:17;;;;;;;7.73;3.70;;;31.00;1.00;;;;;;5044768;28;20499;-67
2023/07/04 11:18:59;;;;;;;9.47;3.90;;;30.80;1.00;;;;;;5047455;28;20906;-68
2023/07/04 11:21:26;;;;;;;7.13;3.30;;;30.60;1.00;;;;;;5046037;28;20458;-68
2023/07/04 11:24:08;;;;;;;9.20;3.60;;;30.50;1.00;;;;;;5047412;28;21024;-72
2023/07/04 11:26:55;;;;;;;7.30;2.93;;;30.30;1.00;;;;;;5042799;28;20484;-68
2023/07/04 11:29:24;;;;;;;6.63;3.57;;;30.00;1.00;;;;;;5043367;28;20466;-68
2023/07/04 11:32:19;;;;;;;8.17;4.23;;;29.70;1.00;;;;;;5045293;28;21560;-68
2023/07/04 11:34:48;;;;;;;7.20;3.40;;;29.40;1.00;;;;;;5030839;28;20857;-68
2023/07/04 11:37:24;;;;;;;6.27;3.30;;;29.20;1.00;;;;;;5046454;28;20456;-66
2023/07/04 11:39:54;;;;;;;6.73;3.90;;;29.00;1.00;;;;;;5045029;28;20966;-66
2023/07/04 11:42:23;;;;;;;7.30;3.70;;;28.70;1.00;;;;;;5044041;28;20468;-67
2023/07/04 11:45:02;;;;;;;9.00;3.60;;;28.50;1.00;;;;;;5044744;28;20493;-67
2023/07/04 11:47:35;;;;;;;6.60;3.23;;;28.30;1.00;;;;;;5047323;28;20458;-66
2023/07/04 11:50:04;;;;;;;7.33;3.70;;;28.10;1.00;;;;;;5049302;28;20520;-67
2023/07/04 11:52:33;;;;;;;7.77;4.03;;;28.10;1.00;;;;;;5049968;28;20493;-66
2023/07/04 11:55:02;;;;;;;6.87;3.83;;;28.00;1.00;;;;;;5050298;28;20485;-66
2023/07/04 11:57:59;;;;;;;7.37;3.00;;;27.90;1.00;;;;;;5050717;28;20454;-67
2023/07/04 12:01:02;;;;;;;7.50;3.47;;;27.90;1.00;;;;;;5047085;28;20473;-66
2023/07/04 12:03:58;;;;;;;8.90;3.97;;;27.80;1.00;;;;;;5047356;28;20865;-66
2023/07/04 12:06:48;;;;;;;8.43;3.87;;;27.70;1.00;;;;;;5046972;28;20482;-67
2023/07/04 12:09:24;;;;;;;6.80;3.73;;;27.80;1.00;;;;;;5050390;28;20462;-66
2023/07/04 12:11:54;;;;;;;12.73;3.90;;;27.90;1.00;;;;;;5051193;28;20575;-68
2023/07/04 12:14:21;;;;;;;7.07;3.00;;;28.00;1.00;;;;;;5049856;28;20580;-67
2023/07/04 12:16:50;;;;;;;8.37;3.97;;;28.20;1.00;;;;;;5050789;28;20457;-67
2023/07/04 12:19:17;;;;;;;8.07;4.00;;;28.40;1.00;;;;;;5050685;28;20462;-66
2023/07/04 12:21:46;;;;;;;9.10;3.60;;;28.60;1.00;;;;;;5051177;28;20497;-67
2023/07/04 12:24:17;;;;;;;6.10;3.63;;;28.60;1.00;;;;;;5049625;28;20504;-66
2023/07/04 12:26:44;;;;;;;8.20;3.70;;;28.80;1.00;;;;;;5050106;28;20504;-67
2023/07/04 12:29:11;;;;;;;7.53;3.77;;;29.00;1.00;;;;;;5050855;28;20464;-67
2023/07/04 12:31:37;;;;;;;7.17;3.47;;;29.10;1.00;;;;;;5048707;28;20473;-67
2023/07/04 12:34:05;;;;;;;6.83;3.70;;;29.10;1.00;;;;;;5049348;28;20501;-67
2023/07/04 12:36:37;;;;;;;6.70;3.60;;;29.10;1.00;;;;;;5049318;28;20461;-67
2023/07/04 12:39:07;;;;;;;7.60;3.53;;;29.00;1.00;;;;;;5049346;28;20833;-66
2023/07/04 12:41:34;;;;;;;6.93;3.90;;;28.90;1.00;;;;;;5046178;28;20458;-67
2023/07/04 12:44:03;;;;;;;6.77;3.20;;;28.80;1.00;;;;;;5049310;28;20481;-67
2023/07/04 12:46:32;;;;;;;7.30;3.53;;;28.70;1.00;;;;;;5049495;28;20489;-67
2023/07/04 12:49:00;;;;;;;6.00;3.00;;;28.70;1.00;;;;;;5050809;28;20454;-67
2023/07/04 12:51:31;;;;;;;6.57;3.40;;;28.70;1.00;;;;;;5049638;28;20458;-67
2023/07/04 12:54:01;;;;;;;8.67;4.53;;;28.80;1.00;;;;;;5043036;28;20552;-67
2023/07/04 12:56:30;;;;;;;8.17;4.40;;;28.70;1.00;;;;;;5050044;28;20458;-67
2023/07/04 12:58:57;;;;;;;7.60;3.70;;;28.50;1.00;;;;;;5047189;28;20458;-67
2023/07/04 13:01:28;;;;;;;6.47;3.10;;;28.30;1.00;;;;;;5049385;28;20466;-66